createdAt,value
2024-02-02T00:00:16.617Z,9.70
2024-02-02T00:05:19.513Z,12.40
2024-02-02T00:10:24.568Z,9.00
2024-02-02T00:15:27.202Z,11.35
2024-02-02T00:20:33.082Z,5.65
2024-02-02T00:25:36.165Z,6.65
2024-02-02T00:30:39.508Z,12.13
2024-02-02T00:36:07.259Z,7.63
2024-02-02T00:41:10.314Z,6.18
2024-02-02T00:46:12.655Z,5.45
2024-02-02T00:51:15.557Z,6.35
2024-02-02T00:56:18.579Z,6.68
2024-02-02T01:01:21.435Z,5.43
2024-02-02T01:06:28.125Z,5.00
2024-02-02T01:11:30.648Z,4.47
2024-02-02T01:16:34.365Z,3.88
2024-02-02T01:21:38.020Z,5.53
2024-02-02T01:26:41.037Z,5.35
2024-02-02T01:31:43.533Z,3.75
2024-02-02T01:36:45.989Z,4.93
2024-02-02T01:41:49.718Z,5.07
2024-02-02T01:46:52.395Z,5.68
2024-02-02T01:51:55.700Z,5.60
2024-02-02T01:56:58.537Z,4.75
2024-02-02T02:02:04.895Z,5.43
2024-02-02T02:07:09.251Z,5.05
2024-02-02T02:12:11.809Z,5.18
2024-02-02T02:17:14.785Z,5.22
2024-02-02T02:22:17.670Z,5.50
2024-02-02T02:27:20.724Z,6.25
2024-02-02T02:32:23.335Z,5.28
2024-02-02T02:37:29.096Z,4.85
2024-02-02T02:42:34.282Z,5.25
2024-02-02T02:47:37.614Z,7.35
2024-02-02T02:52:40.615Z,6.97
2024-02-02T02:57:43.647Z,10.23
2024-02-02T03:02:50.856Z,8.80
2024-02-02T03:07:54.366Z,20.92
2024-02-02T03:12:57.509Z,15.57
2024-02-02T03:18:02.747Z,11.13
2024-02-02T03:23:06.016Z,9.77
2024-02-02T03:28:08.869Z,12.85
2024-02-02T03:33:11.448Z,10.27
2024-02-02T03:38:18.644Z,12.55
2024-02-02T03:43:21.036Z,7.45
2024-02-02T03:48:24.037Z,6.72
2024-02-02T03:53:26.981Z,5.40
2024-02-02T03:58:29.312Z,6.82
2024-02-02T04:03:33.873Z,5.70
2024-02-02T04:08:37.519Z,5.63
2024-02-02T04:13:40.708Z,8.05
2024-02-02T04:18:43.771Z,6.10
2024-02-02T04:23:46.724Z,7.15
2024-02-02T04:28:50.037Z,7.68
2024-02-02T04:33:53.189Z,7.10
2024-02-02T04:38:56.101Z,6.20
2024-02-02T04:43:59.153Z,8.48
2024-02-02T04:49:06.246Z,7.07
2024-02-02T04:54:11.681Z,7.50
2024-02-02T04:59:14.605Z,7.10
2024-02-02T05:04:17.073Z,8.13
2024-02-02T05:09:20.134Z,7.97
2024-02-02T05:14:23.211Z,8.25
2024-02-02T05:19:25.830Z,7.70
2024-02-02T05:24:42.588Z,8.68
2024-02-02T05:29:50.337Z,7.78
2024-02-02T05:34:55.777Z,8.68
2024-02-02T05:39:58.366Z,8.63
2024-02-02T05:45:03.456Z,9.43
2024-02-02T05:50:07.043Z,9.20
2024-02-02T05:55:09.816Z,10.88
2024-02-02T06:07:09.328Z,10.18
2024-02-02T06:12:11.719Z,9.75
2024-02-02T06:17:14.435Z,34.85
2024-02-02T06:22:21.353Z,17.10
2024-02-02T06:27:31.850Z,12.15
2024-02-02T06:32:36.728Z,12.80
2024-02-02T06:37:38.935Z,13.10
2024-02-02T06:43:02.414Z,13.13
2024-02-02T06:48:05.924Z,11.30
2024-02-02T06:53:09.339Z,14.18
2024-02-02T06:58:27.672Z,14.32
2024-02-02T07:03:34.330Z,16.38
2024-02-02T07:08:36.921Z,16.60
2024-02-02T07:13:50.883Z,13.95
2024-02-02T07:18:54.615Z,17.95
2024-02-02T07:23:58.725Z,13.02
2024-02-02T07:29:08.523Z,14.60
2024-02-02T07:34:30.363Z,10.98
2024-02-02T07:39:33.471Z,9.35
2024-02-02T07:44:36.476Z,8.38
2024-02-02T07:49:41.437Z,8.38
2024-02-02T07:54:43.659Z,14.40
2024-02-02T07:59:46.352Z,8.77
2024-02-02T08:04:50.943Z,9.32
2024-02-02T08:09:53.310Z,63.45
2024-02-02T08:14:55.482Z,7.75
2024-02-02T08:20:12.580Z,13.77
2024-02-02T08:25:15.588Z,7.75
2024-02-02T08:30:18.843Z,7.53
2024-02-02T08:35:29.952Z,8.70
2024-02-02T08:46:06.220Z,8.35
2024-02-02T08:51:25.186Z,15.20
2024-02-02T08:56:28.330Z,27.95
2024-02-02T09:01:34.073Z,19.35
2024-02-02T09:06:45.431Z,29.95
2024-02-02T09:11:52.036Z,24.02
2024-02-02T09:16:55.729Z,12.00
2024-02-02T09:22:05.448Z,11.75
2024-02-02T09:27:14.061Z,13.00
2024-02-02T09:32:17.588Z,13.38
2024-02-02T09:37:31.061Z,13.98
2024-02-02T09:42:53.317Z,14.80
2024-02-02T09:48:12.866Z,14.90
2024-02-02T09:53:31.003Z,17.33
2024-02-02T09:59:02.455Z,18.00
2024-02-02T10:04:42.554Z,21.52
2024-02-02T10:10:16.780Z,17.45
2024-02-02T10:15:44.091Z,17.55
2024-02-02T10:21:18.512Z,15.25
2024-02-02T10:26:45.170Z,16.08
2024-02-02T10:32:05.610Z,17.10
2024-02-02T10:37:07.789Z,22.07
2024-02-02T10:42:39.780Z,18.55
2024-02-02T10:48:01.824Z,18.08
2024-02-02T10:53:18.682Z,19.58
2024-02-02T10:58:26.947Z,17.90
2024-02-02T11:03:42.857Z,19.33
2024-02-02T11:08:57.980Z,23.30
2024-02-02T11:14:48.205Z,22.05
2024-02-02T11:20:15.297Z,20.85
2024-02-02T11:25:30.960Z,19.48
2024-02-02T11:30:51.986Z,24.40
2024-02-02T11:36:16.086Z,22.45
2024-02-02T11:41:23.979Z,21.52
2024-02-02T11:46:28.730Z,25.88
2024-02-02T11:51:32.027Z,22.73
2024-02-02T11:56:39.879Z,23.70
2024-02-02T12:01:57.119Z,21.50
2024-02-02T12:07:20.522Z,20.15
2024-02-02T12:12:53.413Z,19.52
2024-02-02T12:17:56.013Z,23.98
2024-02-02T12:22:58.739Z,30.40
2024-02-02T12:28:01.173Z,31.85
2024-02-02T12:33:10.589Z,18.25
2024-02-02T12:38:22.052Z,17.73
2024-02-02T12:43:28.108Z,23.30
2024-02-02T12:48:30.520Z,19.13
2024-02-02T12:53:33.093Z,25.83
2024-02-02T12:58:38.439Z,22.90
2024-02-02T13:03:44.712Z,25.80
2024-02-02T13:08:47.974Z,23.35
2024-02-02T13:13:51.039Z,21.30
2024-02-02T13:18:53.385Z,28.48
2024-02-02T13:23:57.736Z,18.33
2024-02-02T13:29:00.668Z,24.20
2024-02-02T13:34:06.859Z,19.98
2024-02-02T13:39:20.283Z,21.83
2024-02-02T13:44:24.366Z,18.73
2024-02-02T13:49:33.744Z,20.90
2024-02-02T13:54:37.268Z,22.02
2024-02-02T13:59:40.254Z,28.00
2024-02-02T14:04:43.839Z,26.50
2024-02-02T14:10:09.522Z,29.65
2024-02-02T14:15:11.822Z,26.55
2024-02-02T14:20:17.810Z,22.20
2024-02-02T14:25:28.433Z,19.83
2024-02-02T14:30:33.664Z,35.05
2024-02-02T14:35:36.725Z,19.92
2024-02-02T14:40:39.944Z,48.13
2024-02-02T14:45:42.462Z,27.05
2024-02-02T14:50:45.267Z,27.42
2024-02-02T14:55:47.894Z,27.77
2024-02-02T15:00:51.650Z,25.35
2024-02-02T15:05:55.728Z,29.63
2024-02-02T15:10:58.113Z,26.20
2024-02-02T15:16:01.233Z,23.35
2024-02-02T15:21:04.189Z,24.77
2024-02-02T15:26:09.842Z,29.63
2024-02-02T15:31:13.329Z,30.40
2024-02-02T15:36:16.184Z,45.63
2024-02-02T15:41:20.273Z,38.63
2024-02-02T15:46:25.318Z,34.78
2024-02-02T15:51:27.729Z,50.10
2024-02-02T15:56:30.591Z,45.40
2024-02-02T16:01:33.477Z,34.15
2024-02-02T16:06:37.032Z,40.33
2024-02-02T16:11:39.372Z,31.45
2024-02-02T16:16:41.804Z,39.38
2024-02-02T16:21:45.355Z,30.88
2024-02-02T16:26:48.650Z,29.42
2024-02-02T16:31:51.575Z,30.65
2024-02-02T16:36:54.129Z,31.67
2024-02-02T16:41:59.571Z,30.52
2024-02-02T16:47:04.097Z,32.53
2024-02-02T16:52:06.921Z,28.27
2024-02-02T16:57:09.292Z,32.67
2024-02-02T17:02:12.205Z,35.95
2024-02-02T17:07:19.147Z,32.70
2024-02-02T17:12:23.840Z,34.80
2024-02-02T17:17:26.670Z,122.43
2024-02-02T17:22:29.228Z,32.13
2024-02-02T17:27:31.953Z,75.70
2024-02-02T17:32:40.013Z,41.97
2024-02-02T17:37:44.425Z,50.05
2024-02-02T17:42:48.562Z,41.97
2024-02-02T17:47:51.117Z,62.53
2024-02-02T17:52:54.045Z,52.72
2024-02-02T17:57:57.043Z,49.50
2024-02-02T18:02:59.881Z,56.03
2024-02-02T18:08:05.331Z,51.50
2024-02-02T18:13:08.763Z,55.42
2024-02-02T18:18:12.514Z,58.97
2024-02-02T18:23:14.972Z,51.15
2024-02-02T18:28:18.719Z,52.40
2024-02-02T18:33:21.754Z,52.00
2024-02-02T18:38:24.095Z,49.78
2024-02-02T18:43:26.677Z,50.45
2024-02-02T18:48:28.979Z,52.17
2024-02-02T18:53:31.275Z,52.33
2024-02-02T18:58:39.843Z,66.38
2024-02-02T19:03:46.152Z,59.05
2024-02-02T19:08:49.193Z,60.80
2024-02-02T19:13:52.061Z,110.90
2024-02-02T19:18:54.955Z,71.68
2024-02-02T19:23:57.901Z,100.93
2024-02-02T19:29:00.519Z,60.65
2024-02-02T19:34:03.780Z,68.45
2024-02-02T19:39:09.724Z,68.47
2024-02-02T19:44:12.559Z,89.80
2024-02-02T19:49:15.474Z,71.88
2024-02-02T19:54:17.793Z,82.57
2024-02-02T19:59:20.854Z,75.57
2024-02-02T20:04:25.125Z,73.60
2024-02-02T20:09:28.741Z,90.57
2024-02-02T20:14:31.544Z,74.10
2024-02-02T20:19:34.332Z,78.85
2024-02-02T20:24:42.338Z,95.63
2024-02-02T20:29:44.646Z,86.18
2024-02-02T20:34:47.421Z,86.68
2024-02-02T20:39:49.744Z,68.75
2024-02-02T20:44:56.387Z,71.03
2024-02-02T20:49:58.674Z,70.28
2024-02-02T20:55:04.241Z,68.68
2024-02-02T21:00:12.451Z,59.10
2024-02-02T21:05:14.937Z,61.88
2024-02-02T21:10:17.174Z,63.10
2024-02-02T21:15:20.137Z,58.17
2024-02-02T21:20:23.541Z,66.80
2024-02-02T21:25:25.763Z,72.82
2024-02-02T21:30:27.939Z,66.60
2024-02-02T21:35:30.115Z,56.67
2024-02-02T21:40:32.454Z,64.93
2024-02-02T21:45:37.014Z,63.47
2024-02-02T21:50:43.126Z,37.47
2024-02-02T21:55:46.904Z,42.55
2024-02-02T22:00:51.811Z,33.85
2024-02-02T22:05:54.147Z,27.10
2024-02-02T22:10:56.988Z,23.55
2024-02-02T22:15:59.699Z,22.75
2024-02-02T22:21:01.940Z,24.15
2024-02-02T22:26:05.040Z,21.55
2024-02-02T22:31:07.311Z,23.05
2024-02-02T22:36:25.552Z,22.63
2024-02-02T22:41:33.466Z,21.80
2024-02-02T22:46:37.338Z,19.98
2024-02-02T22:51:49.838Z,20.27
2024-02-02T22:56:52.274Z,23.23
2024-02-02T23:01:54.409Z,20.58
2024-02-02T23:06:57.215Z,30.45
2024-02-02T23:11:59.999Z,18.90
2024-02-02T23:17:02.245Z,23.95
2024-02-02T23:22:04.748Z,19.17
2024-02-02T23:27:07.347Z,20.42
2024-02-02T23:32:09.575Z,24.27
2024-02-02T23:37:11.759Z,20.52
2024-02-02T23:42:13.987Z,20.25
2024-02-02T23:47:16.275Z,19.98
2024-02-02T23:52:18.792Z,18.27
2024-02-02T23:57:25.181Z,19.00
